Time;durP1;ratioP1;P1;durP2;ratioP2;P2;SDS_P1;SDS_P2;PMS_P1;PMS_P2;Temp;Humidity;BMP_temperature;BMP_pressure;BME280_temperature;BME280_humidity;BME280_pressure;Samples;Min_cycle;Max_cycle;Signal;HPM_P1;HPM_P2
2022/04/08 00:01:35;;;;;;;5.95;1.08;;;;;;;5.63;85.51;99477.28;5057520;28;20097;-75
2022/04/08 00:04:01;;;;;;;8.07;1.05;;;;;;;5.56;85.81;99497.69;5056471;28;20421;-73
2022/04/08 00:06:26;;;;;;;8.10;1.38;;;;;;;5.52;86.16;99493.81;5023061;28;20040;-74
2022/04/08 00:08:52;;;;;;;8.00;1.27;;;;;;;5.54;86.78;99493.66;5052611;28;20025;-74
2022/04/08 00:11:17;;;;;;;6.05;1.00;;;;;;;5.48;86.73;99497.66;5039484;28;20447;-74
2022/04/08 00:13:43;;;;;;;5.22;1.00;;;;;;;5.40;87.19;99502.75;5037841;28;20454;-75
2022/04/08 00:16:09;;;;;;;10.23;1.40;;;;;;;5.41;87.23;99512.09;5057871;28;20024;-75
2022/04/08 00:18:36;;;;;;;2.72;1.02;;;;;;;5.30;87.64;99510.59;5057912;28;20078;-75
2022/04/08 00:21:03;;;;;;;5.75;1.95;;;;;;;5.30;88.08;99514.94;5039475;28;20036;-75
2022/04/08 00:23:29;;;;;;;4.00;1.00;;;;;;;5.25;88.29;99517.94;5022587;28;20674;-75
2022/04/08 00:25:54;;;;;;;8.20;2.55;;;;;;;5.20;88.53;99521.00;5041408;28;20094;-74
2022/04/08 00:28:20;;;;;;;12.75;2.40;;;;;;;5.24;88.80;99527.44;5055454;28;20085;-75
2022/04/08 00:30:45;;;;;;;9.70;1.52;;;;;;;5.19;88.60;99521.13;5038779;28;20461;-75
2022/04/08 00:33:11;;;;;;;7.85;1.80;;;;;;;5.20;89.08;99533.84;5043288;28;20286;-75
2022/04/08 00:35:36;;;;;;;9.82;2.00;;;;;;;5.16;89.58;99553.09;5041475;28;20153;-75
2022/04/08 00:38:02;;;;;;;9.15;2.47;;;;;;;5.05;89.59;99553.34;5036217;28;20048;-75
2022/04/08 00:40:28;;;;;;;3.80;2.17;;;;;;;5.00;90.19;99535.00;5061221;28;20031;-75
2022/04/08 00:42:54;;;;;;;7.10;1.40;;;;;;;5.02;90.62;99549.28;5039442;28;20086;-74
2022/04/08 00:45:19;;;;;;;6.90;1.40;;;;;;;5.06;90.13;99547.22;5046049;28;20484;-75
2022/04/08 00:47:45;;;;;;;5.22;1.10;;;;;;;4.97;90.38;99560.97;5024243;28;20039;-74
2022/04/08 00:50:11;;;;;;;3.97;1.48;;;;;;;4.92;90.74;99558.06;5057391;28;20532;-75
2022/04/08 00:52:40;;;;;;;6.10;1.55;;;;;;;4.99;89.98;99559.88;5054343;28;20032;-75
2022/04/08 00:55:07;;;;;;;7.60;1.17;;;;;;;4.92;90.44;99563.22;5047708;28;20068;-74
2022/04/08 00:57:33;;;;;;;6.22;1.90;;;;;;;4.86;90.54;99569.75;5043316;28;20114;-74
2022/04/08 01:00:09;;;;;;;11.52;1.48;;;;;;;4.87;90.14;99571.34;5041003;28;20021;-75
2022/04/08 01:02:35;;;;;;;10.13;1.30;;;;;;;4.87;89.97;99577.28;5057744;28;20064;-75
2022/04/08 01:05:01;;;;;;;8.43;1.90;;;;;;;4.70;90.58;99585.00;5044852;28;20127;-74
2022/04/08 01:07:26;;;;;;;14.38;2.33;;;;;;;4.77;90.95;99586.03;5040154;28;20254;-74
2022/04/08 01:09:52;;;;;;;15.68;2.33;;;;;;;4.80;90.61;99585.72;5057924;28;20029;-77
2022/04/08 01:12:18;;;;;;;7.03;1.65;;;;;;;4.83;89.78;99582.88;5041690;28;20032;-74
2022/04/08 01:14:44;;;;;;;5.47;1.45;;;;;;;4.78;90.67;99601.28;5058602;28;20032;-74
2022/04/08 01:17:09;;;;;;;10.20;1.63;;;;;;;4.77;90.40;99594.56;5059997;28;20040;-75
2022/04/08 01:19:35;;;;;;;8.18;1.80;;;;;;;4.86;90.22;99600.56;5041745;28;20029;-75
2022/04/08 01:22:01;;;;;;;9.05;1.50;;;;;;;4.76;90.75;99597.25;5055509;28;21194;-74
2022/04/08 01:24:29;;;;;;;10.10;1.80;;;;;;;4.66;90.65;99600.72;5059900;28;20024;-75
2022/04/08 01:26:54;;;;;;;10.63;1.92;;;;;;;4.65;90.55;99605.97;5057941;28;20095;-74
2022/04/08 01:29:20;;;;;;;11.57;2.10;;;;;;;4.67;90.84;99615.19;5038361;28;20032;-74
2022/04/08 01:31:45;;;;;;;18.88;2.22;;;;;;;4.58;90.93;99618.63;5056642;28;20037;-75
2022/04/08 01:34:14;;;;;;;11.80;2.85;;;;;;;4.55;91.28;99631.72;5041066;28;20032;-75
2022/04/08 01:36:40;;;;;;;9.70;1.52;;;;;;;4.63;90.84;99638.72;5025135;28;20512;-74
2022/04/08 01:39:06;;;;;;;9.55;1.38;;;;;;;4.61;91.06;99643.19;5057945;28;20028;-75
2022/04/08 01:41:31;;;;;;;10.30;1.75;;;;;;;4.64;90.54;99648.84;5041709;28;20040;-75
2022/04/08 01:43:57;;;;;;;13.13;2.83;;;;;;;4.64;91.09;99650.59;5059264;28;20032;-74
2022/04/08 01:46:23;;;;;;;12.05;1.75;;;;;;;4.61;91.27;99658.59;5055937;28;20033;-75
2022/04/08 01:48:53;;;;;;;11.45;2.10;;;;;;;4.66;91.04;99656.41;5041743;28;20029;-75
2022/04/08 01:51:19;;;;;;;16.15;2.83;;;;;;;4.66;91.89;99657.19;5041596;28;20086;-76
2022/04/08 01:53:44;;;;;;;7.50;2.47;;;;;;;4.65;91.03;99658.16;5056810;28;20044;-74
2022/04/08 01:56:10;;;;;;;11.95;3.15;;;;;;;4.64;91.35;99656.53;5042211;28;20025;-74
2022/04/08 01:58:35;;;;;;;15.80;1.92;;;;;;;4.65;91.02;99659.91;5057840;28;20037;-74
2022/04/08 02:01:01;;;;;;;10.80;1.88;;;;;;;4.61;91.03;99666.28;5037651;28;20029;-74
2022/04/08 02:03:27;;;;;;;12.68;2.28;;;;;;;4.59;91.15;99658.72;5037606;28;20051;-75
2022/04/08 02:05:53;;;;;;;8.60;1.85;;;;;;;4.51;91.43;99668.94;5047529;28;20115;-75
2022/04/08 02:08:19;;;;;;;10.68;1.80;;;;;;;4.50;91.59;99667.28;5056392;28;20032;-75
2022/04/08 02:10:44;;;;;;;12.90;2.42;;;;;;;4.55;91.44;99677.16;5053017;28;20033;-75
2022/04/08 02:13:09;;;;;;;16.38;2.38;;;;;;;4.52;92.12;99678.25;5043146;28;20048;-75
2022/04/08 02:15:35;;;;;;;10.93;2.08;;;;;;;4.62;91.59;99684.13;5038971;28;20025;-74
2022/04/08 02:18:01;;;;;;;10.50;1.65;;;;;;;4.62;91.74;99686.69;5039635;28;20039;-75
2022/04/08 02:20:30;;;;;;;12.25;2.20;;;;;;;4.66;91.97;99674.38;5057249;28;20032;-74
2022/04/08 02:22:55;;;;;;;15.02;2.00;;;;;;;4.62;91.87;99684.13;5041752;28;20103;-75
2022/04/08 02:25:21;;;;;;;8.07;1.90;;;;;;;4.65;92.11;99681.28;5041904;28;20524;-74
2022/04/08 02:27:47;;;;;;;10.00;2.00;;;;;;;4.68;91.13;99685.31;5054657;28;20089;-74
2022/04/08 02:30:12;;;;;;;10.20;2.05;;;;;;;4.66;91.22;99700.06;5056420;28;20036;-75
2022/04/08 02:32:38;;;;;;;11.30;1.67;;;;;;;4.57;91.28;99693.22;5057941;28;20040;-75
2022/04/08 02:35:05;;;;;;;14.07;2.17;;;;;;;4.63;90.94;99685.75;5041856;28;20303;-75
2022/04/08 02:37:31;;;;;;;15.70;2.13;;;;;;;4.61;90.38;99695.34;5055351;28;20051;-75
2022/04/08 02:39:56;;;;;;;28.42;3.47;;;;;;;4.54;90.66;99696.88;5057142;28;20401;-74
2022/04/08 02:42:22;;;;;;;18.42;2.83;;;;;;;4.54;91.02;99698.63;5054631;28;20029;-75
2022/04/08 02:44:47;;;;;;;17.42;2.53;;;;;;;4.48;91.04;99700.84;5041441;28;20413;-75
2022/04/08 02:47:13;;;;;;;16.55;3.03;;;;;;;4.48;90.65;99702.56;5054956;28;20085;-75
2022/04/08 02:49:38;;;;;;;17.23;2.40;;;;;;;4.48;90.95;99700.00;5057233;28;20237;-75
2022/04/08 02:52:04;;;;;;;13.18;2.17;;;;;;;4.48;90.58;99705.16;5027619;28;20040;-74
2022/04/08 02:54:30;;;;;;;16.35;2.10;;;;;;;4.49;91.37;99706.78;5058569;28;20035;-74
2022/04/08 02:56:55;;;;;;;13.82;2.85;;;;;;;4.52;91.03;99711.63;5039085;28;20610;-75
2022/04/08 02:59:20;;;;;;;16.77;2.40;;;;;;;4.51;90.82;99716.91;5057318;28;20043;-75
2022/04/08 03:01:46;;;;;;;21.50;3.75;;;;;;;4.43;91.17;99709.91;5026598;28;20024;-74
2022/04/08 03:04:12;;;;;;;21.10;3.60;;;;;;;4.58;91.44;99711.06;5040710;28;20040;-75
2022/04/08 03:06:37;;;;;;;15.73;3.03;;;;;;;4.50;91.30;99718.63;5054566;28;20040;-75
2022/04/08 03:09:03;;;;;;;15.35;4.18;;;;;;;4.54;91.25;99714.03;5057653;28;20037;-74
2022/04/08 03:11:29;;;;;;;24.05;3.17;;;;;;;4.57;91.60;99722.25;5057607;28;20489;-75
2022/04/08 03:13:59;;;;;;;17.58;3.08;;;;;;;4.56;91.51;99717.25;5024512;28;20028;-75
2022/04/08 03:16:24;;;;;;;13.93;3.70;;;;;;;4.55;90.92;99726.72;5029892;28;20036;-74
2022/04/08 03:18:50;;;;;;;22.80;3.78;;;;;;;4.60;90.91;99721.19;5049521;28;20025;-74
2022/04/08 03:21:15;;;;;;;18.63;3.13;;;;;;;4.45;91.61;99708.81;5055485;28;20040;-75
2022/04/08 03:23:43;;;;;;;15.88;4.28;;;;;;;4.49;91.06;99711.91;5042632;28;20048;-74
2022/04/08 03:26:08;;;;;;;19.77;4.40;;;;;;;4.39;90.63;99711.97;5056268;28;20034;-75
2022/04/08 03:28:34;;;;;;;28.27;4.57;;;;;;;4.52;90.74;99711.63;5039447;28;20028;-75
2022/04/08 03:31:01;;;;;;;16.63;4.07;;;;;;;4.51;90.40;99715.13;5025255;28;20033;-75
2022/04/08 03:33:27;;;;;;;17.83;5.63;;;;;;;4.56;90.75;99720.66;5054325;28;20036;-75
2022/04/08 03:35:52;;;;;;;15.70;4.32;;;;;;;4.41;90.89;99715.19;5058653;28;20992;-75
2022/04/08 03:38:18;;;;;;;20.17;4.72;;;;;;;4.33;91.31;99730.47;5040695;28;20036;-75
2022/04/08 03:40:43;;;;;;;13.50;4.07;;;;;;;4.42;91.40;99721.91;5055283;28;20035;-74
2022/04/08 03:43:08;;;;;;;17.92;5.40;;;;;;;4.32;92.13;99736.56;5056787;28;20032;-74
2022/04/08 03:45:34;;;;;;;13.73;3.80;;;;;;;4.37;91.56;99734.41;5056032;28;20036;-74
2022/04/08 03:47:59;;;;;;;14.57;4.32;;;;;;;4.31;92.04;99747.78;5058570;28;20493;-75
2022/04/08 03:50:25;;;;;;;15.02;4.78;;;;;;;4.28;92.37;99740.38;5041535;28;20501;-75
2022/04/08 03:52:50;;;;;;;9.82;4.45;;;;;;;4.29;92.42;99742.81;5057786;28;20067;-74
2022/04/08 03:55:17;;;;;;;9.95;3.65;;;;;;;4.33;92.58;99740.75;5056021;28;20536;-75
2022/04/08 03:57:42;;;;;;;18.13;4.28;;;;;;;4.29;92.31;99753.06;5038375;28;20462;-75
2022/04/08 04:00:09;;;;;;;12.10;3.22;;;;;;;4.26;92.08;99757.69;5055482;28;20024;-75
2022/04/08 04:02:35;;;;;;;13.65;3.20;;;;;;;4.24;92.17;99757.00;5053894;28;20162;-74
2022/04/08 04:05:02;;;;;;;10.10;3.05;;;;;;;4.23;92.08;99760.50;5056044;28;20036;-75
2022/04/08 04:07:28;;;;;;;23.00;4.30;;;;;;;4.20;92.14;99756.47;5055063;28;20111;-74
2022/04/08 04:09:54;;;;;;;9.30;3.50;;;;;;;4.12;92.46;99760.69;5036412;28;20047;-75
2022/04/08 04:12:20;;;;;;;16.13;4.22;;;;;;;4.24;92.08;99759.56;5040745;28;20036;-75
2022/04/08 04:14:45;;;;;;;10.13;3.60;;;;;;;4.08;92.66;99755.81;5038335;28;20553;-74
2022/04/08 04:17:11;;;;;;;10.50;3.95;;;;;;;4.11;92.48;99762.44;5036761;28;20741;-75
2022/04/08 04:19:36;;;;;;;13.50;4.10;;;;;;;4.06;92.45;99762.03;5035872;28;20478;-74
2022/04/08 04:22:02;;;;;;;12.10;3.90;;;;;;;4.10;92.62;99768.50;5038477;28;20024;-75
2022/04/08 04:24:28;;;;;;;11.32;4.60;;;;;;;4.02;92.88;99765.84;5043553;28;20138;-74
2022/04/08 04:26:53;;;;;;;15.73;4.85;;;;;;;4.13;92.96;99752.03;5041886;28;20048;-74
2022/04/08 04:29:19;;;;;;;10.23;4.15;;;;;;;4.04;92.25;99745.97;5062209;28;20118;-75
2022/04/08 04:31:44;;;;;;;21.77;5.35;;;;;;;4.09;92.71;99743.81;5041223;28;20043;-74
2022/04/08 04:34:10;;;;;;;18.17;5.32;;;;;;;4.02;92.50;99740.97;5041602;28;20231;-75
2022/04/08 04:36:35;;;;;;;20.00;6.55;;;;;;;3.94;93.03;99740.88;5062107;28;20032;-75
2022/04/08 04:39:01;;;;;;;17.35;6.30;;;;;;;3.93;93.56;99741.00;5064806;28;20024;-75
2022/04/08 04:41:26;;;;;;;24.08;7.45;;;;;;;3.96;93.64;99743.31;5042533;28;20106;-75
2022/04/08 04:43:52;;;;;;;17.65;7.57;;;;;;;3.95;93.42;99741.69;5045559;28;20090;-75
2022/04/08 04:46:17;;;;;;;14.98;7.45;;;;;;;3.92;93.46;99749.66;5041444;28;20102;-75
2022/04/08 04:48:43;;;;;;;17.52;7.30;;;;;;;3.88;93.13;99749.94;5042253;28;20036;-75
2022/04/08 04:51:08;;;;;;;16.30;8.23;;;;;;;3.89;93.29;99750.75;5039915;28;20499;-75
2022/04/08 04:53:34;;;;;;;22.17;8.10;;;;;;;3.81;93.82;99748.06;5040507;28;20657;-75
2022/04/08 04:55:59;;;;;;;15.65;8.00;;;;;;;3.74;94.44;99750.34;5056729;28;20037;-75
2022/04/08 04:58:25;;;;;;;18.35;8.23;;;;;;;3.72;95.08;99754.00;5041994;28;20039;-75
2022/04/08 05:00:50;;;;;;;21.77;8.90;;;;;;;3.75;95.10;99762.25;5059346;28;20033;-75
2022/04/08 05:03:16;;;;;;;24.38;9.52;;;;;;;3.70;95.71;99762.63;5058511;28;20028;-75
2022/04/08 05:05:41;;;;;;;25.75;9.90;;;;;;;3.79;95.88;99760.22;5059200;28;20028;-75
2022/04/08 05:08:07;;;;;;;23.13;9.23;;;;;;;3.95;95.32;99769.91;5044848;28;20081;-74
2022/04/08 05:10:33;;;;;;;16.30;9.32;;;;;;;3.84;95.18;99764.00;5040682;28;20037;-75
2022/04/08 05:13:01;;;;;;;22.80;9.68;;;;;;;3.93;95.26;99766.66;5055974;28;20288;-74
2022/04/08 05:15:27;;;;;;;25.75;10.32;;;;;;;3.96;94.70;99764.63;5041239;28;20024;-75
2022/04/08 05:17:53;;;;;;;20.67;9.48;;;;;;;3.98;95.16;99774.75;5057606;28;20123;-75
2022/04/08 05:20:19;;;;;;;18.35;9.70;;;;;;;4.04;94.98;99764.75;5042189;28;20056;-74
2022/04/08 05:22:45;;;;;;;23.30;8.65;;;;;;;4.10;95.16;99769.31;5056472;28;20141;-75
2022/04/08 05:25:11;;;;;;;16.30;8.00;;;;;;;4.04;94.90;99759.59;5042645;28;20348;-74
2022/04/08 05:27:38;;;;;;;21.60;8.73;;;;;;;4.03;95.33;99768.28;5043560;28;20047;-74
2022/04/08 05:30:07;;;;;;;18.65;8.77;;;;;;;4.12;95.36;99766.59;5062308;28;20028;-75
2022/04/08 05:32:33;;;;;;;18.63;8.73;;;;;;;4.18;94.88;99770.38;5040371;28;20071;-75
2022/04/08 05:34:58;;;;;;;24.67;9.45;;;;;;;4.17;94.68;99772.16;5038327;28;20481;-75
2022/04/08 05:37:24;;;;;;;19.15;9.07;;;;;;;4.16;94.59;99775.66;5026277;28;20043;-75
2022/04/08 05:39:52;;;;;;;18.52;8.43;;;;;;;4.13;94.35;99773.38;5040879;28;20028;-75
2022/04/08 05:42:17;;;;;;;20.30;8.52;;;;;;;4.13;94.13;99773.38;5041352;28;20067;-75
2022/04/08 05:44:42;;;;;;;16.45;8.38;;;;;;;4.12;94.09;99773.50;5059188;28;20040;-74
2022/04/08 05:47:08;;;;;;;14.23;7.30;;;;;;;4.12;94.72;99770.94;5041863;28;20032;-75
2022/04/08 05:49:33;;;;;;;18.05;7.40;;;;;;;4.11;94.88;99772.72;5055025;28;20028;-75
2022/04/08 05:51:59;;;;;;;21.38;8.02;;;;;;;4.18;95.03;99772.94;5060173;28;20341;-75
2022/04/08 05:54:24;;;;;;;17.75;8.15;;;;;;;4.19;94.86;99775.38;5023636;28;20078;-75
2022/04/08 05:56:50;;;;;;;15.77;7.68;;;;;;;4.23;94.48;99765.63;5042617;28;20385;-75
2022/04/08 05:59:15;;;;;;;17.38;7.18;;;;;;;4.28;94.60;99766.84;5056238;28;20037;-75
2022/04/08 06:01:41;;;;;;;17.80;7.22;;;;;;;4.37;94.25;99754.09;5041167;28;20455;-75
2022/04/08 06:04:06;;;;;;;15.60;7.50;;;;;;;4.33;93.54;99766.41;5058905;28;20386;-75
2022/04/08 06:06:32;;;;;;;21.83;6.65;;;;;;;4.45;93.70;99759.34;5057282;28;20035;-74
2022/04/08 06:08:57;;;;;;;15.02;6.70;;;;;;;4.49;93.38;99751.22;5026291;28;20633;-75
2022/04/08 06:11:22;;;;;;;13.57;7.40;;;;;;;4.58;92.72;99751.34;5056527;28;20494;-75
2022/04/08 06:13:48;;;;;;;14.85;7.40;;;;;;;4.68;92.83;99750.31;5023450;28;20484;-75
2022/04/08 06:16:14;;;;;;;18.60;6.50;;;;;;;4.79;92.13;99751.88;5040721;28;20036;-74
2022/04/08 06:18:40;;;;;;;15.73;6.38;;;;;;;4.85;91.31;99751.31;5029587;28;20417;-74
2022/04/08 06:21:05;;;;;;;9.82;6.20;;;;;;;4.83;90.53;99752.41;5038956;28;20558;-75
2022/04/08 06:23:31;;;;;;;12.45;5.63;;;;;;;4.89;89.91;99754.41;5060097;28;20032;-75
2022/04/08 06:25:56;;;;;;;13.77;5.93;;;;;;;4.81;89.37;99754.31;5056907;28;20025;-75
2022/04/08 06:28:22;;;;;;;17.70;6.40;;;;;;;4.84;89.40;99757.41;5024228;28;20028;-75
2022/04/08 06:30:47;;;;;;;12.88;5.85;;;;;;;4.96;89.48;99752.06;5025501;28;20665;-76
2022/04/08 06:33:12;;;;;;;8.40;5.43;;;;;;;4.96;89.82;99758.00;5054196;28;20040;-76
2022/04/08 06:35:38;;;;;;;16.38;6.00;;;;;;;4.97;89.50;99764.78;5058970;28;20035;-75
2022/04/08 06:38:05;;;;;;;16.33;5.82;;;;;;;5.00;89.28;99761.91;5043771;28;20031;-76
2022/04/08 06:40:40;;;;;;;11.20;6.05;;;;;;;5.06;89.03;99755.38;5056929;28;20035;-75
2022/04/08 06:43:07;;;;;;;10.80;5.95;;;;;;;5.24;88.62;99763.91;5053343;28;20032;-75
2022/04/08 06:45:33;;;;;;;13.73;7.75;;;;;;;5.42;87.71;99760.50;5040156;28;20036;-75
2022/04/08 06:47:59;;;;;;;13.32;5.90;;;;;;;5.65;86.02;99759.13;5052530;28;20037;-75
2022/04/08 06:50:25;;;;;;;13.15;6.15;;;;;;;5.81;85.10;99758.41;5033120;28;20036;-75
2022/04/08 06:52:51;;;;;;;15.07;5.82;;;;;;;6.05;84.59;99751.84;5039178;28;20553;-75
2022/04/08 06:55:17;;;;;;;10.70;6.50;;;;;;;6.28;82.54;99746.19;5042719;28;20021;-75
2022/04/08 06:57:42;;;;;;;9.57;5.53;;;;;;;6.55;83.58;99747.75;5046767;28;20036;-75
2022/04/08 07:00:11;;;;;;;12.77;6.10;;;;;;;6.90;81.21;99740.78;5024697;28;20694;-76
2022/04/08 07:02:37;;;;;;;13.00;6.20;;;;;;;7.11;80.45;99735.97;5054954;28;20036;-75
2022/04/08 07:05:03;;;;;;;12.30;6.10;;;;;;;7.00;79.69;99738.84;5037653;28;20102;-75
2022/04/08 07:07:31;;;;;;;9.75;5.70;;;;;;;6.80;80.57;99721.09;5042108;28;20459;-75
2022/04/08 07:09:57;;;;;;;8.30;5.63;;;;;;;6.67;80.49;99722.50;5056797;28;20036;-75
2022/04/08 07:12:27;;;;;;;13.02;6.00;;;;;;;6.62;80.98;99726.34;5058331;28;20463;-76
2022/04/08 07:14:52;;;;;;;10.70;5.40;;;;;;;6.65;80.65;99732.97;5051599;28;20055;-75
2022/04/08 07:17:25;;;;;;;18.35;6.70;;;;;;;6.58;81.16;99735.34;5057845;28;20028;-76
2022/04/08 07:19:51;;;;;;;13.85;5.15;;;;;;;6.55;80.74;99722.78;5039348;28;20167;-75
2022/04/08 07:22:16;;;;;;;12.98;5.80;;;;;;;6.48;81.42;99734.69;5023774;28;20028;-75
2022/04/08 07:24:42;;;;;;;8.48;5.15;;;;;;;6.47;81.52;99725.34;5026648;28;20032;-75
2022/04/08 07:27:07;;;;;;;10.95;5.40;;;;;;;6.52;81.46;99730.84;5041138;28;20374;-75
2022/04/08 07:29:33;;;;;;;14.68;5.28;;;;;;;6.57;79.62;99731.19;5040086;28;20066;-76
2022/04/08 07:31:58;;;;;;;9.73;5.15;;;;;;;6.39;79.84;99741.56;5040879;28;20102;-75
2022/04/08 07:34:24;;;;;;;11.98;4.75;;;;;;;6.33;78.58;99737.03;5040310;28;20037;-75
2022/04/08 07:36:49;;;;;;;11.43;4.50;;;;;;;6.46;79.23;99738.38;5034034;28;20028;-76
2022/04/08 07:39:15;;;;;;;11.95;4.88;;;;;;;6.46;79.52;99741.75;5043048;28;20036;-75
2022/04/08 07:41:40;;;;;;;13.02;5.03;;;;;;;6.47;79.37;99747.72;5025266;28;20087;-75
2022/04/08 07:44:06;;;;;;;12.18;4.68;;;;;;;6.39;78.42;99740.75;5026759;28;20450;-75
2022/04/08 07:46:31;;;;;;;11.43;4.90;;;;;;;6.41;78.99;99741.41;5039802;28;20032;-75
2022/04/08 07:48:56;;;;;;;11.10;4.55;;;;;;;6.37;79.50;99740.91;5036123;28;20070;-75
2022/04/08 07:51:22;;;;;;;8.15;4.32;;;;;;;6.42;80.36;99732.72;5041888;28;20041;-76
2022/04/08 07:53:47;;;;;;;11.27;5.00;;;;;;;6.55;79.92;99734.84;5025948;28;20036;-75
2022/04/08 07:56:13;;;;;;;15.65;4.90;;;;;;;6.43;79.13;99739.50;5055238;28;20040;-75
2022/04/08 07:58:38;;;;;;;10.48;4.50;;;;;;;6.51;78.58;99739.50;5062291;28;20032;-75
2022/04/08 08:01:04;;;;;;;17.15;5.38;;;;;;;6.57;77.66;99738.91;5041207;28;20044;-75
2022/04/08 08:03:31;;;;;;;9.95;4.60;;;;;;;6.51;76.54;99733.56;5030153;28;20036;-74
2022/04/08 08:05:56;;;;;;;9.13;4.45;;;;;;;6.39;77.90;99731.25;5062018;28;20874;-75
2022/04/08 08:08:22;;;;;;;16.05;4.82;;;;;;;6.42;77.93;99732.72;5043467;28;20040;-75
2022/04/08 08:10:49;;;;;;;10.68;4.13;;;;;;;6.41;78.54;99734.50;5031379;28;20028;-75
2022/04/08 08:13:14;;;;;;;12.82;3.65;;;;;;;6.53;78.31;99722.13;5062582;28;20176;-75
2022/04/08 08:15:41;;;;;;;10.48;4.22;;;;;;;6.59;78.18;99716.38;5027168;28;20025;-76
2022/04/08 08:18:07;;;;;;;13.45;4.20;;;;;;;6.59;78.26;99715.56;5061042;28;20058;-76
2022/04/08 08:20:33;;;;;;;14.05;5.35;;;;;;;6.65;77.57;99721.84;5045793;28;20025;-75
2022/04/08 08:22:58;;;;;;;7.57;3.90;;;;;;;6.64;76.96;99718.47;5058548;28;20044;-75
2022/04/08 08:25:24;;;;;;;11.13;3.92;;;;;;;6.65;76.26;99721.84;5030706;28;20043;-75
2022/04/08 08:27:59;;;;;;;10.05;4.38;;;;;;;6.72;76.52;99715.09;5046850;28;20444;-76
2022/04/08 08:30:27;;;;;;;18.25;4.38;;;;;;;6.83;76.93;99725.13;5045678;28;20037;-76
2022/04/08 08:32:52;;;;;;;10.60;3.55;;;;;;;6.82;75.30;99719.16;5033236;28;20791;-75
2022/04/08 08:35:19;;;;;;;11.25;4.28;;;;;;;6.92;73.95;99716.44;5041904;28;20040;-74
2022/04/08 08:37:46;;;;;;;12.25;4.45;;;;;;;6.91;74.59;99714.84;5060176;28;20041;-75
2022/04/08 08:40:13;;;;;;;13.10;4.30;;;;;;;6.84;73.77;99708.72;5064657;28;20025;-75
2022/04/08 08:42:39;;;;;;;13.48;3.92;;;;;;;6.79;74.60;99701.44;5063007;28;20392;-75
2022/04/08 08:45:06;;;;;;;10.00;4.70;;;;;;;6.76;75.47;99703.53;5030117;28;20028;-75
2022/04/08 08:47:33;;;;;;;9.90;4.40;;;;;;;6.85;75.31;99700.00;5060517;28;20546;-75
2022/04/08 08:49:59;;;;;;;14.38;4.70;;;;;;;6.88;74.81;99698.91;5043382;28;20338;-75
2022/04/08 08:52:25;;;;;;;11.85;4.57;;;;;;;6.99;74.50;99690.84;5059535;28;20047;-75
2022/04/08 08:54:51;;;;;;;14.75;5.13;;;;;;;7.00;74.33;99684.72;5043660;28;20032;-75
2022/04/08 08:57:19;;;;;;;9.77;4.38;;;;;;;7.06;74.56;99676.34;5029728;28;20028;-75
2022/04/08 08:59:45;;;;;;;14.10;4.60;;;;;;;7.04;75.54;99678.28;5040634;28;20456;-75
2022/04/08 09:02:18;;;;;;;15.55;5.47;;;;;;;7.01;74.02;99674.25;5040926;28;20025;-76
2022/04/08 09:04:43;;;;;;;;;;;;;;;7.04;74.23;99664.59;5059925;28;20063;-75
2022/04/08 09:07:25;;;;;;;13.00;5.10;;;;;;;7.26;74.13;99665.72;5047902;28;19912;-75
2022/04/08 09:09:52;;;;;;;6.68;4.30;;;;;;;7.41;72.58;99657.16;5046882;28;20025;-76
2022/04/08 09:12:18;;;;;;;8.60;4.10;;;;;;;7.51;71.88;99649.25;5045269;28;20036;-75
2022/04/08 09:14:49;;;;;;;9.27;4.55;;;;;;;7.43;72.25;99651.03;5042471;28;20028;-76
2022/04/08 09:17:19;;;;;;;10.35;4.10;;;;;;;7.64;71.70;99647.94;5057847;28;20028;-75
2022/04/08 09:19:53;;;;;;;8.20;3.45;;;;;;;7.65;72.91;99642.63;5041884;28;20777;-76
2022/04/08 09:22:20;;;;;;;14.70;4.72;;;;;;;7.83;72.00;99634.66;5059301;28;20064;-76
2022/04/08 09:24:46;;;;;;;13.02;4.50;;;;;;;7.77;71.48;99628.38;5056985;28;20037;-76
2022/04/08 09:27:12;;;;;;;12.43;3.70;;;;;;;7.67;70.16;99621.81;5041026;28;20498;-76
2022/04/08 09:29:41;;;;;;;15.90;4.68;;;;;;;7.82;70.81;99624.50;5059634;28;20097;-76
2022/04/08 09:32:12;;;;;;;11.38;3.50;;;;;;;7.92;70.82;99618.16;5034377;28;20051;-75
2022/04/08 09:34:38;;;;;;;10.35;4.15;;;;;;;7.92;70.11;99609.63;5047202;28;60283;-77
2022/04/08 09:37:11;;;;;;;9.35;4.13;;;;;;;8.05;68.86;99625.38;5056186;28;111748;-75
2022/04/08 09:39:57;;;;;;;12.73;3.95;;;;;;;8.02;68.03;99612.00;5064820;28;20042;-76
2022/04/08 09:42:23;;;;;;;11.10;3.60;;;;;;;7.99;68.50;99618.31;5044605;28;20458;-76
2022/04/08 09:44:49;;;;;;;6.93;3.50;;;;;;;7.98;69.03;99607.16;5080564;28;20502;-76
2022/04/08 09:47:15;;;;;;;10.52;3.00;;;;;;;8.00;69.77;99617.34;5061095;28;20035;-76
2022/04/08 09:49:41;;;;;;;9.32;3.10;;;;;;;7.95;69.46;99610.09;5062786;28;20067;-75
2022/04/08 09:52:07;;;;;;;7.13;2.97;;;;;;;7.94;68.37;99612.84;5078497;28;20082;-75
2022/04/08 09:54:35;;;;;;;6.15;2.65;;;;;;;7.90;69.44;99609.00;5078879;28;20296;-75
2022/04/08 09:57:01;;;;;;;5.63;2.33;;;;;;;8.02;69.90;99602.47;5043444;28;20032;-75
2022/04/08 09:59:30;;;;;;;7.80;2.53;;;;;;;8.22;67.73;99602.88;5063111;28;20453;-76
2022/04/08 10:01:58;;;;;;;13.60;3.08;;;;;;;8.17;65.65;99600.81;5060382;28;20028;-77
2022/04/08 10:04:24;;;;;;;6.75;3.38;;;;;;;8.06;67.14;99602.94;5079422;28;20228;-76
2022/04/08 10:06:50;;;;;;;8.15;2.47;;;;;;;8.18;66.38;99602.41;5059174;28;20036;-76
2022/04/08 10:09:19;;;;;;;10.20;2.50;;;;;;;8.23;66.83;99601.91;5079019;28;20039;-76
2022/04/08 10:11:57;;;;;;;5.78;1.92;;;;;;;8.14;64.90;99603.72;5059416;28;20134;-76
2022/04/08 10:15:05;;;;;;;5.90;2.25;;;;;;;8.26;64.35;99605.94;5081916;28;20040;-76
2022/04/08 10:17:31;;;;;;;14.02;8.00;;;;;;;8.31;63.93;99608.81;5069471;28;20044;-76
2022/04/08 10:20:19;;;;;;;14.55;6.72;;;;;;;8.32;64.22;99612.97;5060573;28;20495;-76
2022/04/08 10:22:45;;;;;;;12.23;4.72;;;;;;;8.29;64.99;99618.50;5078590;28;20028;-76
2022/04/08 10:25:15;;;;;;;8.85;3.00;;;;;;;8.06;65.32;99614.09;5061542;28;20101;-76
2022/04/08 10:27:43;;;;;;;7.88;2.58;;;;;;;8.15;65.21;99613.06;5077501;28;20040;-77
2022/04/08 10:30:14;;;;;;;12.32;3.50;;;;;;;8.28;66.72;99612.53;5048243;28;20023;-76
2022/04/08 10:32:40;;;;;;;8.65;3.03;;;;;;;8.49;64.78;99603.38;5076985;28;20273;-75
2022/04/08 10:35:18;;;;;;;6.28;2.85;;;;;;;8.47;65.43;99597.59;5063689;28;20032;-76
2022/04/08 10:37:58;;;;;;;11.43;5.43;;;;;;;8.41;64.75;99600.84;5062154;28;20032;-76
2022/04/08 10:40:38;;;;;;;8.32;3.15;;;;;;;8.30;63.99;99592.50;5060096;28;20107;-76
2022/04/08 10:43:11;;;;;;;8.02;3.30;;;;;;;8.36;63.30;99591.00;5031336;28;20133;-72
2022/04/08 10:45:38;;;;;;;5.47;2.85;;;;;;;8.33;64.52;99584.41;5030864;28;20044;-71
2022/04/08 10:48:09;;;;;;;6.93;3.25;;;;;;;8.17;65.06;99584.50;5094736;27;20030;-71
2022/04/08 10:50:35;;;;;;;6.03;2.72;;;;;;;8.02;63.40;99566.34;5010676;28;20156;-72
2022/04/08 10:53:05;;;;;;;6.10;2.40;;;;;;;8.21;62.10;99574.63;4999702;28;20033;-72
2022/04/08 10:55:31;;;;;;;4.55;2.50;;;;;;;8.21;60.40;99567.69;5095202;27;20038;-72
2022/04/08 10:57:58;;;;;;;6.47;3.42;;;;;;;8.08;62.20;99560.50;5022472;28;20041;-71
2022/04/08 11:00:25;;;;;;;5.85;3.20;;;;;;;8.07;61.51;99552.94;5005941;28;20030;-72
2022/04/08 11:02:54;;;;;;;7.65;3.30;;;;;;;7.98;63.00;99544.41;5008767;28;20387;-72
2022/04/08 11:05:20;;;;;;;7.85;3.10;;;;;;;8.15;60.65;99547.72;5002917;28;20049;-72
2022/04/08 11:07:53;;;;;;;5.68;3.08;;;;;;;8.33;61.17;99537.91;5000158;28;20523;-71
2022/04/08 11:10:20;;;;;;;7.28;2.88;;;;;;;8.24;61.86;99533.78;5002527;28;20488;-71
2022/04/08 11:12:50;;;;;;;6.78;2.50;;;;;;;8.25;60.27;99534.56;5002866;28;20458;-71
2022/04/08 11:15:28;;;;;;;4.88;2.30;;;;;;;8.32;59.27;99522.59;5007719;28;20551;-72
2022/04/08 11:17:54;;;;;;;9.15;2.25;;;;;;;8.36;59.66;99522.09;5017800;28;20411;-71
2022/04/08 11:20:22;;;;;;;4.53;1.90;;;;;;;8.49;58.11;99524.09;4998608;28;20025;-71
2022/04/08 11:22:50;;;;;;;6.72;2.03;;;;;;;8.44;59.52;99526.41;5014636;28;20411;-71
2022/04/08 11:25:29;;;;;;;4.93;2.00;;;;;;;8.44;58.06;99517.84;4984323;28;20492;-72
2022/04/08 11:28:02;;;;;;;6.38;2.67;;;;;;;8.51;58.82;99524.75;5016294;28;20136;-71
2022/04/08 11:30:29;;;;;;;9.70;1.95;;;;;;;8.51;58.33;99529.09;5001019;28;20038;-71
2022/04/08 11:32:55;;;;;;;3.95;2.10;;;;;;;8.53;56.60;99517.63;5020662;28;20028;-72
2022/04/08 11:35:21;;;;;;;4.90;1.98;;;;;;;8.60;57.85;99509.19;5004440;28;20455;-72